createdAt,value
2023-05-22T00:01:51.949Z,99.90
2023-05-22T00:04:21.593Z,99.90
2023-05-22T00:06:49.242Z,99.90
2023-05-22T00:09:16.224Z,99.90
2023-05-22T00:11:43.139Z,99.90
2023-05-22T00:14:10.018Z,99.90
2023-05-22T00:16:36.926Z,99.90
2023-05-22T00:19:04.462Z,99.90
2023-05-22T00:21:35.007Z,99.90
2023-05-22T00:24:02.326Z,99.90
2023-05-22T00:26:29.211Z,99.90
2023-05-22T00:28:56.022Z,99.90
2023-05-22T00:31:23.259Z,99.90
2023-05-22T00:33:50.411Z,99.90
2023-05-22T00:36:18.693Z,99.90
2023-05-22T00:38:46.403Z,99.90
2023-05-22T00:41:13.340Z,99.90
2023-05-22T00:43:40.459Z,99.90
2023-05-22T00:46:10.354Z,99.90
2023-05-22T00:48:37.161Z,99.90
2023-05-22T00:51:04.148Z,99.90
2023-05-22T00:53:31.476Z,99.90
2023-05-22T00:55:58.763Z,99.90
2023-05-22T00:58:26.810Z,99.90
2023-05-22T01:00:53.711Z,99.90
2023-05-22T01:03:26.998Z,99.90
2023-05-22T01:05:54.662Z,99.90
2023-05-22T01:08:21.627Z,99.90
2023-05-22T01:10:49.094Z,99.90
2023-05-22T01:13:38.435Z,99.90
2023-05-22T01:16:13.599Z,99.90
2023-05-22T01:18:58.563Z,99.90
2023-05-22T01:21:46.285Z,99.90
2023-05-22T01:24:31.382Z,99.90
2023-05-22T01:27:39.666Z,99.90
2023-05-22T01:30:06.470Z,99.90
2023-05-22T01:32:33.284Z,99.90
2023-05-22T01:35:01.676Z,99.90
2023-05-22T01:37:28.718Z,99.90
2023-05-22T01:39:56.020Z,99.90
2023-05-22T01:42:23.005Z,99.90
2023-05-22T01:44:49.836Z,99.90
2023-05-22T01:47:18.099Z,99.90
2023-05-22T01:49:45.043Z,99.90
2023-05-22T01:52:15.507Z,99.90
2023-05-22T01:54:50.320Z,99.90
2023-05-22T01:57:20.104Z,99.90
2023-05-22T01:59:54.659Z,99.90
2023-05-22T02:02:22.049Z,99.90
2023-05-22T02:05:01.301Z,99.90
2023-05-22T02:07:28.184Z,99.90
2023-05-22T02:09:55.742Z,99.90
2023-05-22T02:12:23.454Z,99.90
2023-05-22T02:14:50.339Z,99.90
2023-05-22T02:17:20.426Z,99.90
2023-05-22T02:19:47.367Z,99.90
2023-05-22T02:22:14.212Z,99.90
2023-05-22T02:24:41.950Z,99.90
2023-05-22T02:27:09.670Z,99.90
2023-05-22T02:29:36.530Z,99.90
2023-05-22T02:32:04.146Z,99.90
2023-05-22T02:34:31.742Z,99.90
2023-05-22T02:37:04.714Z,99.90
2023-05-22T02:39:31.665Z,99.90
2023-05-22T02:41:58.496Z,99.90
2023-05-22T02:44:25.351Z,99.90
2023-05-22T02:46:52.349Z,99.90
2023-05-22T02:49:19.218Z,99.90
2023-05-22T02:51:47.827Z,99.90
2023-05-22T02:54:15.887Z,99.90
2023-05-22T02:56:43.406Z,99.90
2023-05-22T02:59:10.392Z,99.90
2023-05-22T03:01:38.818Z,99.90
2023-05-22T03:04:06.626Z,99.90
2023-05-22T03:06:35.134Z,99.90
2023-05-22T03:09:04.420Z,99.90
2023-05-22T03:11:31.896Z,99.90
2023-05-22T03:13:58.779Z,99.90
2023-05-22T03:16:26.805Z,99.90
2023-05-22T03:19:08.208Z,99.90
2023-05-22T03:21:35.164Z,99.90
2023-05-22T03:24:02.181Z,99.90
2023-05-22T03:26:29.141Z,99.90
2023-05-22T03:28:56.600Z,99.90
2023-05-22T03:31:27.641Z,99.90
2023-05-22T03:33:54.576Z,99.90
2023-05-22T03:36:21.764Z,99.90
2023-05-22T03:38:48.790Z,99.90
2023-05-22T03:41:15.757Z,99.90
2023-05-22T03:43:44.919Z,99.90
2023-05-22T03:46:12.052Z,99.90
2023-05-22T03:48:39.107Z,99.90
2023-05-22T03:51:06.269Z,99.90
2023-05-22T03:53:33.056Z,99.90
2023-05-22T03:55:59.933Z,99.90
2023-05-22T03:58:26.991Z,99.90
2023-05-22T04:00:54.849Z,99.90
2023-05-22T04:03:21.784Z,97.70
2023-05-22T04:05:48.690Z,93.70
2023-05-22T04:08:15.599Z,93.30
2023-05-22T04:10:42.507Z,91.00
2023-05-22T04:13:09.349Z,89.20
2023-05-22T04:15:36.603Z,84.80
2023-05-22T04:18:03.557Z,81.90
2023-05-22T04:20:30.783Z,81.10
2023-05-22T04:22:57.668Z,78.30
2023-05-22T04:25:24.540Z,75.40
2023-05-22T04:27:51.408Z,73.90
2023-05-22T04:30:18.507Z,73.30
2023-05-22T04:32:45.591Z,71.70
2023-05-22T04:35:12.451Z,70.60
2023-05-22T04:37:41.114Z,70.00
2023-05-22T04:40:11.546Z,69.80
2023-05-22T04:42:38.991Z,68.10
2023-05-22T04:45:06.309Z,67.10
2023-05-22T04:47:33.180Z,65.80
2023-05-22T04:50:00.766Z,65.00
2023-05-22T04:52:27.641Z,64.50
2023-05-22T04:54:55.469Z,64.00
2023-05-22T04:57:25.625Z,62.10
2023-05-22T04:59:53.540Z,59.40
2023-05-22T05:02:20.451Z,58.80
2023-05-22T05:04:47.571Z,57.10
2023-05-22T05:07:17.743Z,56.50
2023-05-22T05:09:44.608Z,56.30
2023-05-22T05:12:11.442Z,55.80
2023-05-22T05:14:38.231Z,54.90
2023-05-22T05:17:05.213Z,54.50
2023-05-22T05:19:34.120Z,54.60
2023-05-22T05:22:02.117Z,53.80
2023-05-22T05:24:28.973Z,52.90
2023-05-22T05:26:55.835Z,53.90
2023-05-22T05:29:22.615Z,53.60
2023-05-22T05:31:49.635Z,52.50
2023-05-22T05:34:16.508Z,52.80
2023-05-22T05:36:43.402Z,52.00
2023-05-22T05:39:10.189Z,52.10
2023-05-22T05:41:36.975Z,51.90
2023-05-22T05:44:03.933Z,51.20
2023-05-22T05:46:30.804Z,50.10
2023-05-22T05:48:58.311Z,50.10
2023-05-22T05:51:25.116Z,49.40
2023-05-22T05:53:51.878Z,49.30
2023-05-22T05:56:18.831Z,48.40
2023-05-22T05:58:45.740Z,47.80
2023-05-22T06:01:12.882Z,47.60
2023-05-22T06:03:39.825Z,46.90
2023-05-22T06:06:07.389Z,47.10
2023-05-22T06:08:34.480Z,46.90
2023-05-22T06:11:01.687Z,46.60
2023-05-22T06:13:28.522Z,46.60
2023-05-22T06:15:55.856Z,46.60
2023-05-22T06:18:23.930Z,45.70
2023-05-22T06:20:50.691Z,45.00
2023-05-22T06:23:17.648Z,45.30
2023-05-22T06:25:44.642Z,45.00
2023-05-22T06:28:11.791Z,44.60
2023-05-22T06:30:40.385Z,44.00
2023-05-22T06:33:08.081Z,43.90
2023-05-22T06:35:35.090Z,43.50
2023-05-22T06:38:02.034Z,42.50
2023-05-22T06:40:29.125Z,43.30
2023-05-22T06:42:57.724Z,43.20
2023-05-22T06:45:24.544Z,43.10
2023-05-22T06:47:55.089Z,43.40
2023-05-22T06:50:22.285Z,43.60
2023-05-22T06:52:49.362Z,43.50
2023-05-22T06:55:16.542Z,42.70
2023-05-22T06:57:43.348Z,43.10
2023-05-22T07:00:12.912Z,42.50
2023-05-22T07:02:40.165Z,42.10
2023-05-22T07:05:07.435Z,41.80
2023-05-22T07:07:34.749Z,41.80
2023-05-22T07:10:01.693Z,41.60
2023-05-22T07:12:29.682Z,41.60
2023-05-22T07:14:57.876Z,41.10
2023-05-22T07:17:24.766Z,41.30
2023-05-22T07:19:51.705Z,41.00
2023-05-22T07:22:18.485Z,40.80
2023-05-22T07:24:47.289Z,39.70
2023-05-22T07:27:14.327Z,39.70
2023-05-22T07:29:41.251Z,38.60
2023-05-22T07:32:08.502Z,39.00
2023-05-22T07:34:35.394Z,40.20
2023-05-22T07:37:08.172Z,39.40
2023-05-22T07:39:35.498Z,39.10
2023-05-22T07:42:03.085Z,37.80
2023-05-22T07:44:30.098Z,37.90
2023-05-22T07:46:57.350Z,38.70
2023-05-22T07:49:24.588Z,38.90
2023-05-22T07:51:51.766Z,38.70
2023-05-22T07:54:18.654Z,37.50
2023-05-22T07:56:45.916Z,38.20
2023-05-22T07:59:12.868Z,39.10
2023-05-22T08:01:41.849Z,38.80
2023-05-22T08:04:09.054Z,38.80
2023-05-22T08:06:36.368Z,38.70
2023-05-22T08:09:04.593Z,39.00
2023-05-22T08:11:31.476Z,38.10
2023-05-22T08:13:58.353Z,38.20
2023-05-22T08:16:25.408Z,38.80
2023-05-22T08:18:52.379Z,39.30
2023-05-22T08:21:19.301Z,39.60
2023-05-22T08:23:46.153Z,39.60
2023-05-22T08:26:13.048Z,37.90
2023-05-22T08:28:44.030Z,38.50
2023-05-22T08:31:11.777Z,38.50
2023-05-22T08:33:39.060Z,37.10
2023-05-22T08:36:06.397Z,37.50
2023-05-22T08:38:33.302Z,37.80
2023-05-22T08:41:00.225Z,36.60
2023-05-22T08:43:28.572Z,37.40
2023-05-22T08:46:05.968Z,37.40
2023-05-22T08:48:33.385Z,36.40
2023-05-22T08:51:04.291Z,36.80
2023-05-22T08:53:36.059Z,37.10
2023-05-22T08:56:04.993Z,36.80
2023-05-22T08:58:32.411Z,36.40
2023-05-22T09:00:59.261Z,36.40
2023-05-22T09:03:35.264Z,35.50
2023-05-22T09:06:02.425Z,36.60
2023-05-22T09:08:29.367Z,36.70
2023-05-22T09:10:56.706Z,36.50
2023-05-22T09:13:31.341Z,36.30
2023-05-22T09:16:11.202Z,36.70
2023-05-22T09:18:38.490Z,36.40
2023-05-22T09:21:21.502Z,38.10
2023-05-22T09:23:59.289Z,37.90
2023-05-22T09:26:29.176Z,35.70
2023-05-22T09:28:57.077Z,37.20
2023-05-22T09:31:23.983Z,38.60
2023-05-22T09:33:50.971Z,38.60
2023-05-22T09:36:18.198Z,39.70
2023-05-22T09:38:45.039Z,42.10
2023-05-22T09:41:11.899Z,41.30
2023-05-22T09:43:38.768Z,41.40
2023-05-22T09:46:05.987Z,42.50
2023-05-22T09:48:38.868Z,43.90
2023-05-22T09:51:05.834Z,44.40
2023-05-22T09:53:33.369Z,46.20
2023-05-22T09:56:00.483Z,46.40
2023-05-22T09:58:28.220Z,45.30
2023-05-22T10:00:56.377Z,48.30
2023-05-22T10:03:24.372Z,48.90
2023-05-22T10:05:53.973Z,48.10
2023-05-22T10:08:25.213Z,49.80
2023-05-22T10:10:53.263Z,51.40
2023-05-22T10:13:21.067Z,51.80
2023-05-22T10:15:48.971Z,51.70
2023-05-22T10:18:17.084Z,49.90
2023-05-22T10:20:44.737Z,50.90
2023-05-22T10:23:11.655Z,52.60
2023-05-22T10:25:38.929Z,53.70
2023-05-22T10:28:06.461Z,54.00
2023-05-22T10:30:33.286Z,52.30
2023-05-22T10:33:08.383Z,50.30
2023-05-22T10:35:55.413Z,50.10
2023-05-22T10:38:28.257Z,51.50
2023-05-22T10:40:55.079Z,51.40
2023-05-22T10:43:22.683Z,50.70
2023-05-22T10:45:49.621Z,50.70
2023-05-22T10:48:16.622Z,51.90
2023-05-22T10:50:51.042Z,49.80
2023-05-22T10:53:25.731Z,50.30
2023-05-22T10:55:57.008Z,52.00
2023-05-22T10:58:30.842Z,49.60
2023-05-22T11:01:17.369Z,48.90
2023-05-22T11:04:00.347Z,50.40
2023-05-22T11:06:43.071Z,49.30
2023-05-22T11:09:30.985Z,50.00
2023-05-22T11:12:19.622Z,49.50
2023-05-22T11:14:53.428Z,49.20
2023-05-22T11:17:25.859Z,49.50
2023-05-22T11:20:05.908Z,50.70
2023-05-22T11:22:37.833Z,51.10
2023-05-22T11:25:25.244Z,48.40
2023-05-22T11:27:52.906Z,50.00
2023-05-22T11:30:19.743Z,49.90
2023-05-22T11:32:48.118Z,50.30
2023-05-22T11:35:24.163Z,50.90
2023-05-22T11:37:51.770Z,48.50
2023-05-22T11:40:19.580Z,49.80
2023-05-22T11:42:46.658Z,50.00
2023-05-22T11:45:14.011Z,48.30
2023-05-22T11:47:40.932Z,49.20
2023-05-22T11:50:11.802Z,50.30
2023-05-22T11:52:41.858Z,49.10
2023-05-22T11:55:09.785Z,48.90
2023-05-22T11:57:36.924Z,47.80
2023-05-22T12:00:06.420Z,48.60
2023-05-22T12:02:33.605Z,48.80
2023-05-22T12:05:00.749Z,49.70
2023-05-22T12:07:27.815Z,49.00
2023-05-22T12:09:58.368Z,49.60
2023-05-22T12:12:25.745Z,48.50
2023-05-22T12:14:53.182Z,48.30
2023-05-22T12:17:20.031Z,48.40
2023-05-22T12:19:47.552Z,47.60
2023-05-22T12:22:14.602Z,48.10
2023-05-22T12:24:48.208Z,48.20
2023-05-22T12:27:15.250Z,48.30
2023-05-22T12:29:42.464Z,47.70
2023-05-22T12:32:13.006Z,47.90
2023-05-22T12:34:47.090Z,48.30
2023-05-22T12:37:21.845Z,48.30
2023-05-22T12:40:03.001Z,50.40
2023-05-22T12:42:29.899Z,48.60
2023-05-22T12:44:57.392Z,49.00
2023-05-22T12:47:24.562Z,48.60
2023-05-22T12:49:51.652Z,48.20
2023-05-22T12:52:18.485Z,48.50
2023-05-22T12:54:45.506Z,49.90
2023-05-22T12:57:12.445Z,50.20
2023-05-22T12:59:39.352Z,50.50
2023-05-22T13:02:06.558Z,51.50
2023-05-22T13:04:33.631Z,49.50
2023-05-22T13:07:00.577Z,48.80
2023-05-22T13:09:27.467Z,50.10
2023-05-22T13:11:54.987Z,51.60
2023-05-22T13:14:21.927Z,49.70
2023-05-22T13:16:48.867Z,50.20
2023-05-22T13:19:15.864Z,50.80
2023-05-22T13:21:43.151Z,50.50
2023-05-22T13:24:10.030Z,51.10
2023-05-22T13:26:36.893Z,50.60
2023-05-22T13:29:03.849Z,50.00
2023-05-22T13:31:33.370Z,50.40
2023-05-22T13:34:02.452Z,50.60
2023-05-22T13:36:30.115Z,52.20
2023-05-22T13:38:57.202Z,51.30
2023-05-22T13:41:24.066Z,50.50
2023-05-22T13:43:50.934Z,49.60
2023-05-22T13:46:18.275Z,48.90
2023-05-22T13:48:45.304Z,49.50
2023-05-22T13:51:12.139Z,50.30
2023-05-22T13:53:39.013Z,50.30
2023-05-22T13:56:06.099Z,48.50
2023-05-22T13:58:32.999Z,49.40
2023-05-22T14:00:59.906Z,49.90
2023-05-22T14:03:26.775Z,49.40
2023-05-22T14:05:53.717Z,50.10
2023-05-22T14:08:20.644Z,50.10
2023-05-22T14:10:47.581Z,50.40
2023-05-22T14:13:15.281Z,49.40
2023-05-22T14:15:43.183Z,49.90
2023-05-22T14:18:10.127Z,50.20
2023-05-22T14:20:37.080Z,50.80
2023-05-22T14:23:03.908Z,49.80
2023-05-22T14:25:30.834Z,48.50
2023-05-22T14:27:57.706Z,49.20
2023-05-22T14:30:24.637Z,49.30
2023-05-22T14:32:51.762Z,49.00
2023-05-22T14:35:19.040Z,48.40
2023-05-22T14:37:46.032Z,49.30
2023-05-22T14:40:13.054Z,50.30
2023-05-22T14:42:39.938Z,48.60
2023-05-22T14:45:07.169Z,48.60
2023-05-22T14:47:34.081Z,48.40
2023-05-22T14:50:17.622Z,49.40
2023-05-22T14:52:46.312Z,49.40
2023-05-22T14:55:13.214Z,49.10
2023-05-22T14:57:40.005Z,47.00
2023-05-22T15:00:09.708Z,48.00
2023-05-22T15:02:37.260Z,48.70
2023-05-22T15:05:04.641Z,47.50
2023-05-22T15:07:43.173Z,46.50
2023-05-22T15:10:11.411Z,47.10
2023-05-22T15:12:38.298Z,46.80
2023-05-22T15:15:05.559Z,46.50
2023-05-22T15:17:32.513Z,47.00
2023-05-22T15:19:59.862Z,47.10
2023-05-22T15:22:26.682Z,47.50
2023-05-22T15:25:11.712Z,47.80
2023-05-22T15:27:39.292Z,47.20
2023-05-22T15:30:06.767Z,47.10
2023-05-22T15:32:33.794Z,47.30
2023-05-22T15:35:00.874Z,47.50
2023-05-22T15:37:29.687Z,47.30
2023-05-22T15:39:58.442Z,47.60
2023-05-22T15:42:25.307Z,48.10
2023-05-22T15:44:52.089Z,47.10
2023-05-22T15:47:18.865Z,47.40
2023-05-22T15:49:45.933Z,47.50
2023-05-22T15:52:12.728Z,47.40
2023-05-22T15:54:39.752Z,47.10
2023-05-22T15:57:06.555Z,47.60
2023-05-22T15:59:33.460Z,48.00
2023-05-22T16:02:00.428Z,47.80
2023-05-22T16:04:27.214Z,47.20
2023-05-22T16:06:54.053Z,47.10
2023-05-22T16:09:20.906Z,46.80
2023-05-22T16:11:47.830Z,46.90
2023-05-22T16:14:14.786Z,47.20
2023-05-22T16:16:41.777Z,46.70
2023-05-22T16:19:08.885Z,47.20
2023-05-22T16:21:35.931Z,47.70
2023-05-22T16:24:03.607Z,46.70
2023-05-22T16:26:30.417Z,47.00
2023-05-22T16:28:57.264Z,47.00
2023-05-22T16:31:24.219Z,47.50
2023-05-22T16:33:52.972Z,48.00
2023-05-22T16:36:19.829Z,47.50
2023-05-22T16:38:46.780Z,47.50
2023-05-22T16:41:13.618Z,48.00
2023-05-22T16:43:40.489Z,48.00
2023-05-22T16:46:07.455Z,48.40
2023-05-22T16:48:34.251Z,48.60
2023-05-22T16:51:01.088Z,48.70
2023-05-22T16:53:27.994Z,48.60
2023-05-22T16:55:54.823Z,48.60
2023-05-22T16:58:21.891Z,48.40
2023-05-22T17:00:48.993Z,48.70
2023-05-22T17:03:16.105Z,48.70
2023-05-22T17:05:43.708Z,48.90
2023-05-22T17:08:10.671Z,49.30
2023-05-22T17:10:37.494Z,49.90
2023-05-22T17:13:04.299Z,49.70
2023-05-22T17:15:31.227Z,49.80
2023-05-22T17:17:58.099Z,50.30
2023-05-22T17:20:25.073Z,49.80
2023-05-22T17:22:52.464Z,50.40
2023-05-22T17:25:19.459Z,50.90
2023-05-22T17:27:46.568Z,50.40
2023-05-22T17:30:13.535Z,50.70
2023-05-22T17:32:40.476Z,51.00
2023-05-22T17:35:07.614Z,51.20
2023-05-22T17:37:34.522Z,51.40
2023-05-22T17:40:01.402Z,51.60
2023-05-22T17:42:28.278Z,51.70
2023-05-22T17:44:55.186Z,52.20
2023-05-22T17:47:22.142Z,52.50
2023-05-22T17:49:49.088Z,52.40
2023-05-22T17:52:16.102Z,52.20
2023-05-22T17:54:42.971Z,52.50
2023-05-22T17:57:09.795Z,52.80
2023-05-22T17:59:38.425Z,52.70
2023-05-22T18:02:06.863Z,53.20
2023-05-22T18:04:33.683Z,53.70
2023-05-22T18:07:00.614Z,54.50
2023-05-22T18:09:27.432Z,55.30
2023-05-22T18:11:54.413Z,55.80
2023-05-22T18:14:21.300Z,56.90
2023-05-22T18:16:48.132Z,57.10
2023-05-22T18:19:15.035Z,57.50
2023-05-22T18:21:42.003Z,58.10
2023-05-22T18:24:08.850Z,58.70
2023-05-22T18:26:35.717Z,59.90
2023-05-22T18:29:02.637Z,60.30
2023-05-22T18:31:29.530Z,61.00
2023-05-22T18:33:56.515Z,61.50
2023-05-22T18:36:23.334Z,61.80
2023-05-22T18:38:50.224Z,62.40
2023-05-22T18:41:17.098Z,62.70
2023-05-22T18:43:43.963Z,63.10
2023-05-22T18:46:10.788Z,63.20
2023-05-22T18:48:37.664Z,63.60
2023-05-22T18:51:04.541Z,64.10
2023-05-22T18:53:31.609Z,64.40
2023-05-22T18:55:58.465Z,64.80
2023-05-22T18:58:25.684Z,65.40
2023-05-22T19:00:55.293Z,65.60
2023-05-22T19:03:22.332Z,65.80
2023-05-22T19:05:49.251Z,66.30
2023-05-22T19:08:16.092Z,66.70
2023-05-22T19:10:43.114Z,66.80
2023-05-22T19:13:10.091Z,67.00
2023-05-22T19:15:37.709Z,67.60
2023-05-22T19:18:04.771Z,68.40
2023-05-22T19:20:31.713Z,68.90
2023-05-22T19:22:58.576Z,69.40
2023-05-22T19:25:25.555Z,69.90
2023-05-22T19:27:52.505Z,70.30
2023-05-22T19:30:19.785Z,70.40
2023-05-22T19:32:48.243Z,70.60
2023-05-22T19:35:15.373Z,70.60
2023-05-22T19:37:42.193Z,70.90
2023-05-22T19:40:09.750Z,71.40
2023-05-22T19:42:37.640Z,71.80
2023-05-22T19:45:05.682Z,72.30
2023-05-22T19:47:32.591Z,72.70
2023-05-22T19:49:59.496Z,73.10
2023-05-22T19:52:29.159Z,73.50
2023-05-22T19:54:56.114Z,73.80
2023-05-22T19:57:23.298Z,74.40
2023-05-22T19:59:50.691Z,74.80
2023-05-22T20:02:17.605Z,75.10
2023-05-22T20:04:44.711Z,75.50
2023-05-22T20:07:11.782Z,75.80
2023-05-22T20:09:38.547Z,76.30
2023-05-22T20:12:06.695Z,76.60
2023-05-22T20:14:33.504Z,76.70
2023-05-22T20:17:01.321Z,77.30
2023-05-22T20:19:30.844Z,77.90
2023-05-22T20:21:58.341Z,78.50
2023-05-22T20:24:25.452Z,79.00
2023-05-22T20:26:52.621Z,79.60
2023-05-22T20:29:19.485Z,79.60
2023-05-22T20:31:46.809Z,79.50
2023-05-22T20:34:13.809Z,79.80
2023-05-22T20:36:42.571Z,80.00
2023-05-22T20:39:11.776Z,80.60
2023-05-22T20:41:38.841Z,80.70
2023-05-22T20:44:06.439Z,81.30
2023-05-22T20:46:33.735Z,82.20
2023-05-22T20:49:02.994Z,82.80
2023-05-22T20:51:32.579Z,83.80
2023-05-22T20:53:59.914Z,84.70
2023-05-22T20:56:27.162Z,85.20
2023-05-22T20:58:57.071Z,85.40
2023-05-22T21:01:24.868Z,85.40
2023-05-22T21:03:51.859Z,85.60
2023-05-22T21:06:19.151Z,86.00
2023-05-22T21:08:46.005Z,87.10
2023-05-22T21:11:13.151Z,87.70
2023-05-22T21:13:40.052Z,88.40
2023-05-22T21:16:07.073Z,88.90
2023-05-22T21:18:33.958Z,89.50
2023-05-22T21:21:00.861Z,90.10
2023-05-22T21:23:27.678Z,90.40
2023-05-22T21:25:54.543Z,90.50
2023-05-22T21:28:21.323Z,90.80
2023-05-22T21:30:48.218Z,90.90
2023-05-22T21:33:15.115Z,91.00
2023-05-22T21:35:41.952Z,91.30
2023-05-22T21:38:08.992Z,91.50
2023-05-22T21:40:35.838Z,91.90
2023-05-22T21:43:02.642Z,92.40
2023-05-22T21:45:29.437Z,92.90
2023-05-22T21:47:56.326Z,93.40
2023-05-22T21:50:23.116Z,93.80
2023-05-22T21:52:49.885Z,94.20
2023-05-22T21:55:16.668Z,94.50
2023-05-22T21:57:45.556Z,95.10
2023-05-22T22:00:13.243Z,95.70
2023-05-22T22:02:40.448Z,95.90
2023-05-22T22:05:07.821Z,96.20
2023-05-22T22:07:34.725Z,96.70
2023-05-22T22:10:01.644Z,97.10
2023-05-22T22:12:28.485Z,97.50
2023-05-22T22:14:57.056Z,97.80
2023-05-22T22:17:24.130Z,98.20
2023-05-22T22:19:53.638Z,98.30
2023-05-22T22:22:22.724Z,98.90
2023-05-22T22:24:49.780Z,99.40
2023-05-22T22:27:16.679Z,99.80
2023-05-22T22:29:43.762Z,99.90
2023-05-22T22:32:10.868Z,99.90
2023-05-22T22:34:37.854Z,99.90
2023-05-22T22:37:05.918Z,99.90
2023-05-22T22:39:33.744Z,99.90
2023-05-22T22:42:04.188Z,99.90
2023-05-22T22:44:31.814Z,99.90
2023-05-22T22:46:58.707Z,99.90
2023-05-22T22:49:25.617Z,99.90
2023-05-22T22:51:52.547Z,99.90
2023-05-22T22:54:19.521Z,99.90
2023-05-22T22:56:49.910Z,99.90
2023-05-22T22:59:17.201Z,99.90
2023-05-22T23:01:44.090Z,99.90
2023-05-22T23:04:11.186Z,99.90
2023-05-22T23:06:38.207Z,99.90
2023-05-22T23:09:05.085Z,99.90
2023-05-22T23:11:37.425Z,99.90
2023-05-22T23:14:07.336Z,99.90
2023-05-22T23:16:43.210Z,99.90
2023-05-22T23:19:10.823Z,99.90
2023-05-22T23:21:37.815Z,99.90
2023-05-22T23:24:05.306Z,99.90
2023-05-22T23:26:32.563Z,99.90
2023-05-22T23:28:59.752Z,99.90
2023-05-22T23:31:30.531Z,99.90
2023-05-22T23:33:57.829Z,99.90
2023-05-22T23:36:24.890Z,99.90
2023-05-22T23:38:51.706Z,99.90
2023-05-22T23:41:18.692Z,99.90
2023-05-22T23:43:45.744Z,99.90
2023-05-22T23:46:15.579Z,99.90
2023-05-22T23:48:42.476Z,99.90
2023-05-22T23:51:09.459Z,99.90
2023-05-22T23:53:36.763Z,99.90
2023-05-22T23:56:04.361Z,99.90
2023-05-22T23:58:32.211Z,99.90
